DRK202 VIDP-VQPR
Flight info
| Callsign | DRK202 |
|---|---|
| Flight time | 1h 59m |
| Altitude | 37000 |
| Route | ALI6G ALI DCT KTM B345 TUMLI G348 SUBSU SUBSU1 |
| Aircraft | A320/M-SDE3FGHIRWY/LB1 |
Departure
| Time | 2025-09-06 06:00 |
|---|---|
| Airport | Indira Gandhi International Airport (VIDP) |
Arrival
| Time | 2025-09-06 07:59 |
|---|---|
| Airport | Paro International Airport (VQPR) |
| Time | Latitude | Longitude | Altitude | Speed | Heading |
|---|---|---|---|---|---|
| 2025-09-06 04:58 | 28.56185 | 77.08209 | 750 ft | 0 kts | 242° |
| 2025-09-06 05:38 | 28.56195 | 77.08231 | 747 ft | 3 kts | 245° |
| 2025-09-06 05:39 | 28.56209 | 77.08274 | 746 ft | 3 kts | 263° |
| 2025-09-06 05:39 | 28.56205 | 77.08305 | 745 ft | 2 kts | 326° |
| 2025-09-06 05:40 | 28.56203 | 77.08307 | 745 ft | 0 kts | 330° |
| 2025-09-06 05:53 | 28.56238 | 77.08284 | 748 ft | 3 kts | 330° |
| 2025-09-06 05:54 | 28.56330 | 77.08164 | 750 ft | 8 kts | 286° |
| 2025-09-06 05:55 | 28.56355 | 77.08062 | 748 ft | 5 kts | 285° |
| 2025-09-06 05:55 | 28.56277 | 77.07950 | 746 ft | 21 kts | 193° |
| 2025-09-06 05:56 | 28.55979 | 77.07864 | 746 ft | 24 kts | 195° |
| 2025-09-06 05:56 | 28.55674 | 77.07776 | 747 ft | 23 kts | 193° |
| 2025-09-06 05:56 | 28.55520 | 77.07729 | 749 ft | 23 kts | 194° |
| 2025-09-06 05:57 | 28.55224 | 77.07644 | 747 ft | 20 kts | 193° |
| 2025-09-06 05:57 | 28.55025 | 77.07589 | 749 ft | 10 kts | 192° |
| 2025-09-06 05:58 | 28.54840 | 77.07626 | 750 ft | 7 kts | 103° |
| 2025-09-06 05:59 | 28.54586 | 77.08817 | 753 ft | 137 kts | 103° |
| 2025-09-06 05:59 | 28.54046 | 77.11225 | 1769 ft | 160 kts | 108° |
| 2025-09-06 06:00 | 28.52292 | 77.12734 | 2656 ft | 198 kts | 181° |
| 2025-09-06 06:00 | 28.50895 | 77.12582 | 3088 ft | 204 kts | 175° |
| 2025-09-06 06:00 | 28.48054 | 77.12861 | 4185 ft | 206 kts | 169° |
| 2025-09-06 06:01 | 28.45129 | 77.13261 | 5092 ft | 228 kts | 170° |
| 2025-09-06 06:01 | 28.41682 | 77.13712 | 6004 ft | 264 kts | 171° |
| 2025-09-06 06:02 | 28.36124 | 77.14384 | 6835 ft | 268 kts | 171° |
| 2025-09-06 06:02 | 28.34272 | 77.14605 | 6834 ft | 268 kts | 171° |
| 2025-09-06 06:03 | 28.29043 | 77.16276 | 6827 ft | 262 kts | 138° |
| 2025-09-06 06:04 | 28.27088 | 77.19814 | 8177 ft | 270 kts | 116° |
| 2025-09-06 06:04 | 28.26285 | 77.21750 | 8981 ft | 272 kts | 116° |
| 2025-09-06 06:05 | 28.23778 | 77.27745 | 9809 ft | 303 kts | 116° |
| 2025-09-06 06:05 | 28.22836 | 77.30000 | 9806 ft | 325 kts | 116° |
| 2025-09-06 06:05 | 28.20887 | 77.34688 | 9805 ft | 330 kts | 116° |
| 2025-09-06 06:06 | 28.17888 | 77.41741 | 10609 ft | 336 kts | 118° |
| 2025-09-06 06:07 | 28.15710 | 77.46483 | 11910 ft | 343 kts | 118° |
| 2025-09-06 06:07 | 28.13471 | 77.51327 | 13144 ft | 351 kts | 118° |
| 2025-09-06 06:07 | 28.12337 | 77.53795 | 13726 ft | 355 kts | 118° |
| 2025-09-06 06:08 | 28.10043 | 77.58823 | 14807 ft | 362 kts | 118° |
| 2025-09-06 06:08 | 28.07714 | 77.63934 | 15857 ft | 369 kts | 118° |
| 2025-09-06 06:09 | 28.05339 | 77.69140 | 16903 ft | 375 kts | 118° |
| 2025-09-06 06:09 | 28.02923 | 77.74429 | 17902 ft | 382 kts | 118° |
| 2025-09-06 06:10 | 27.99200 | 77.82542 | 19235 ft | 391 kts | 118° |
| 2025-09-06 06:11 | 27.96676 | 77.88040 | 20128 ft | 396 kts | 118° |
| 2025-09-06 06:11 | 27.95418 | 77.90778 | 20567 ft | 399 kts | 118° |
| 2025-09-06 06:12 | 27.91535 | 77.99204 | 21822 ft | 407 kts | 118° |
| 2025-09-06 06:12 | 27.90219 | 78.02055 | 22236 ft | 410 kts | 119° |
| 2025-09-06 06:12 | 27.87562 | 78.07798 | 23009 ft | 415 kts | 119° |
| 2025-09-06 06:13 | 27.84876 | 78.13610 | 23668 ft | 420 kts | 118° |
| 2025-09-06 06:13 | 27.83097 | 78.19922 | 24262 ft | 428 kts | 99° |
| 2025-09-06 06:15 | 27.82998 | 78.36994 | 25672 ft | 440 kts | 92° |
| 2025-09-06 06:16 | 27.83040 | 78.61492 | 27407 ft | 453 kts | 92° |
| 2025-09-06 06:19 | 27.83029 | 78.94005 | 29302 ft | 467 kts | 92° |
| 2025-09-06 06:21 | 27.82960 | 79.23656 | 30656 ft | 472 kts | 92° |
| 2025-09-06 06:23 | 27.82826 | 79.53104 | 32405 ft | 466 kts | 91° |
| 2025-09-06 06:25 | 27.82632 | 79.82112 | 34344 ft | 458 kts | 91° |
| 2025-09-06 06:27 | 27.82387 | 80.10741 | 35937 ft | 453 kts | 91° |
| 2025-09-06 06:29 | 27.82080 | 80.39081 | 36807 ft | 452 kts | 91° |
| 2025-09-06 06:31 | 27.81713 | 80.67647 | 36819 ft | 455 kts | 91° |
| 2025-09-06 06:32 | 27.81335 | 80.92625 | 36829 ft | 455 kts | 92° |
| 2025-09-06 06:35 | 27.80814 | 81.23521 | 36838 ft | 453 kts | 92° |
| 2025-09-06 06:36 | 27.80358 | 81.48411 | 36841 ft | 452 kts | 92° |
| 2025-09-06 06:39 | 27.79694 | 81.80274 | 36838 ft | 451 kts | 92° |
| 2025-09-06 06:40 | 27.79121 | 82.05006 | 36835 ft | 450 kts | 92° |
| 2025-09-06 06:43 | 27.78339 | 82.36756 | 36846 ft | 451 kts | 92° |
| 2025-09-06 06:44 | 27.77663 | 82.61543 | 36857 ft | 451 kts | 92° |
| 2025-09-06 06:47 | 27.76736 | 82.93371 | 36857 ft | 450 kts | 92° |
| 2025-09-06 06:48 | 27.75967 | 83.18042 | 36862 ft | 450 kts | 92° |
| 2025-09-06 06:50 | 27.75043 | 83.46343 | 36877 ft | 451 kts | 92° |
| 2025-09-06 06:52 | 27.74061 | 83.74565 | 36892 ft | 450 kts | 92° |
| 2025-09-06 06:54 | 27.73011 | 84.02798 | 36906 ft | 450 kts | 93° |
| 2025-09-06 06:56 | 27.71918 | 84.31049 | 36927 ft | 450 kts | 93° |
| 2025-09-06 06:58 | 27.70743 | 84.59194 | 36959 ft | 449 kts | 93° |
| 2025-09-06 07:00 | 27.69541 | 84.87390 | 37002 ft | 450 kts | 94° |
| 2025-09-06 07:03 | 27.68109 | 85.19116 | 37076 ft | 450 kts | 94° |
| 2025-09-06 07:04 | 27.65709 | 85.43623 | 37095 ft | 450 kts | 102° |
| 2025-09-06 07:07 | 27.59776 | 85.74698 | 37103 ft | 452 kts | 103° |
| 2025-09-06 07:09 | 27.54436 | 86.02390 | 37109 ft | 452 kts | 103° |
| 2025-09-06 07:11 | 27.49040 | 86.30030 | 37146 ft | 452 kts | 103° |
| 2025-09-06 07:12 | 27.44395 | 86.54287 | 37167 ft | 452 kts | 103° |
| 2025-09-06 07:15 | 27.38356 | 86.85386 | 37147 ft | 452 kts | 103° |
| 2025-09-06 07:16 | 27.33619 | 87.09521 | 37113 ft | 451 kts | 103° |
| 2025-09-06 07:19 | 27.21596 | 87.37761 | 37077 ft | 450 kts | 121° |
| 2025-09-06 07:20 | 27.10622 | 87.57607 | 37054 ft | 448 kts | 122° |
| 2025-09-06 07:23 | 26.95773 | 87.84308 | 37029 ft | 448 kts | 122° |
| 2025-09-06 07:25 | 26.82544 | 88.07965 | 37014 ft | 449 kts | 122° |
| 2025-09-06 07:27 | 26.71307 | 88.32523 | 36973 ft | 448 kts | 90° |
| 2025-09-06 07:28 | 26.80801 | 88.54408 | 35888 ft | 458 kts | 60° |
| 2025-09-06 07:30 | 26.94400 | 88.79378 | 27393 ft | 482 kts | 59° |
| 2025-09-06 07:31 | 27.01292 | 88.92347 | 23097 ft | 479 kts | 62° |
| 2025-09-06 07:32 | 27.04377 | 88.98632 | 22858 ft | 441 kts | 62° |
| 2025-09-06 07:32 | 27.07164 | 89.04308 | 22562 ft | 388 kts | 62° |
| 2025-09-06 07:33 | 27.09628 | 89.09263 | 22258 ft | 341 kts | 62° |
| 2025-09-06 07:33 | 27.11819 | 89.13656 | 21986 ft | 308 kts | 62° |
| 2025-09-06 07:34 | 27.12849 | 89.15723 | 21856 ft | 301 kts | 62° |
| 2025-09-06 07:34 | 27.15890 | 89.21854 | 20952 ft | 303 kts | 62° |
| 2025-09-06 07:35 | 27.18429 | 89.25541 | 19836 ft | 304 kts | 43° |
| 2025-09-06 07:36 | 27.23760 | 89.28883 | 18471 ft | 288 kts | 14° |
| 2025-09-06 07:36 | 27.25707 | 89.29321 | 17982 ft | 283 kts | 10° |
| 2025-09-06 07:37 | 27.31485 | 89.30457 | 16670 ft | 277 kts | 10° |
| 2025-09-06 07:37 | 27.33379 | 89.30665 | 16255 ft | 271 kts | 357° |
| 2025-09-06 07:37 | 27.36826 | 89.29417 | 15438 ft | 257 kts | 326° |
| 2025-09-06 07:38 | 27.38294 | 89.28307 | 15035 ft | 251 kts | 326° |
| 2025-09-06 07:38 | 27.42640 | 89.25766 | 14095 ft | 218 kts | 354° |
| 2025-09-06 07:39 | 27.45330 | 89.26213 | 13952 ft | 182 kts | 25° |
| 2025-09-06 07:39 | 27.47275 | 89.27953 | 13820 ft | 179 kts | 54° |
| 2025-09-06 07:40 | 27.48230 | 89.30487 | 13386 ft | 176 kts | 83° |
| 2025-09-06 07:40 | 27.48011 | 89.33147 | 12862 ft | 168 kts | 111° |
| 2025-09-06 07:41 | 27.46795 | 89.35333 | 12380 ft | 165 kts | 136° |
| 2025-09-06 07:42 | 27.44252 | 89.37898 | 11628 ft | 168 kts | 122° |
| 2025-09-06 07:42 | 27.43119 | 89.40419 | 10132 ft | 194 kts | 125° |
| 2025-09-06 07:43 | 27.40935 | 89.42142 | 8757 ft | 191 kts | 153° |
| 2025-09-06 07:43 | 27.38668 | 89.43551 | 8122 ft | 176 kts | 142° |
| 2025-09-06 07:44 | 27.37002 | 89.45797 | 8534 ft | 197 kts | 157° |
| 2025-09-06 07:44 | 27.34369 | 89.47234 | 8796 ft | 221 kts | 142° |
| 2025-09-06 07:45 | 27.32765 | 89.50182 | 9363 ft | 241 kts | 99° |
| 2025-09-06 07:45 | 27.31453 | 89.53336 | 10161 ft | 225 kts | 154° |
| 2025-09-06 07:45 | 27.29935 | 89.53571 | 10302 ft | 223 kts | 195° |
| 2025-09-06 07:46 | 27.25596 | 89.52093 | 10218 ft | 222 kts | 172° |
| 2025-09-06 07:46 | 27.24079 | 89.52325 | 9971 ft | 219 kts | 179° |
| 2025-09-06 07:47 | 27.20247 | 89.50121 | 9415 ft | 216 kts | 241° |
| 2025-09-06 07:48 | 27.20050 | 89.46821 | 8823 ft | 220 kts | 290° |
| 2025-09-06 07:48 | 27.21412 | 89.44163 | 9064 ft | 178 kts | 304° |
| 2025-09-06 07:49 | 27.22908 | 89.41724 | 9782 ft | 199 kts | 298° |
| 2025-09-06 07:49 | 27.24207 | 89.38787 | 10360 ft | 220 kts | 296° |
| 2025-09-06 07:49 | 27.24844 | 89.37205 | 10627 ft | 227 kts | 287° |
| 2025-09-06 07:50 | 27.26526 | 89.32705 | 11086 ft | 181 kts | 317° |
| 2025-09-06 07:51 | 27.28763 | 89.31782 | 11236 ft | 173 kts | 356° |
| 2025-09-06 07:51 | 27.31157 | 89.31547 | 11453 ft | 173 kts | 347° |
| 2025-09-06 07:52 | 27.33527 | 89.30923 | 11373 ft | 178 kts | 344° |
| 2025-09-06 07:52 | 27.35816 | 89.29934 | 10844 ft | 175 kts | 334° |
| 2025-09-06 07:52 | 27.36981 | 89.29237 | 10755 ft | 194 kts | 331° |
| 2025-09-06 07:53 | 27.39140 | 89.27661 | 10538 ft | 194 kts | 324° |
| 2025-09-06 07:53 | 27.41557 | 89.25783 | 10697 ft | 227 kts | 334° |
| 2025-09-06 07:54 | 27.45562 | 89.26582 | 12126 ft | 180 kts | 33° |
| 2025-09-06 07:55 | 27.47626 | 89.28297 | 12387 ft | 199 kts | 48° |
| 2025-09-06 07:55 | 27.48394 | 89.31239 | 11108 ft | 210 kts | 102° |
| 2025-09-06 07:56 | 27.47165 | 89.34273 | 9986 ft | 209 kts | 131° |
| 2025-09-06 07:56 | 27.46222 | 89.35480 | 9592 ft | 201 kts | 136° |
| 2025-09-06 07:56 | 27.44416 | 89.37678 | 9419 ft | 203 kts | 130° |
| 2025-09-06 07:57 | 27.43176 | 89.40356 | 8574 ft | 180 kts | 120° |
| 2025-09-06 07:57 | 27.41195 | 89.41916 | 7413 ft | 181 kts | 146° |
| 2025-09-06 07:58 | 27.39551 | 89.42964 | 7306 ft | 29 kts | 151° |
| 2025-09-06 07:59 | 27.39436 | 89.42994 | 7301 ft | 21 kts | 233° |
| 2025-09-06 07:59 | 27.39534 | 89.42868 | 7309 ft | 9 kts | 331° |
| 2025-09-06 08:00 | 27.39639 | 89.42802 | 7311 ft | 9 kts | 330° |
| 2025-09-06 08:00 | 27.39696 | 89.42766 | 7313 ft | 10 kts | 330° |
| 2025-09-06 08:00 | 27.39803 | 89.42698 | 7317 ft | 8 kts | 330° |
| 2025-09-06 08:01 | 27.39910 | 89.42630 | 7319 ft | 13 kts | 330° |
| 2025-09-06 08:01 | 27.40122 | 89.42495 | 7323 ft | 20 kts | 330° |
| 2025-09-06 08:02 | 27.40450 | 89.42285 | 7339 ft | 14 kts | 330° |
| 2025-09-06 08:03 | 27.40582 | 89.42200 | 7344 ft | 9 kts | 332° |
| 2025-09-06 08:03 | 27.40601 | 89.42131 | 7346 ft | 0 kts | 241° |
| 2025-09-06 08:04 | 27.40598 | 89.42125 | 7346 ft | 0 kts | 243° |